sensor_id;sensor_type;location;lat;lon;timestamp;P1;durP1;ratioP1;P2;durP2;ratioP2
15504;SDS011;7854;52.184;5.942;2023-05-20T00:03:04;8;;;4;;
15504;SDS011;7854;52.184;5.942;2023-05-20T00:04:23;4;;;4;;
15504;SDS011;7854;52.184;5.942;2023-05-20T00:06:37;5;;;4;;
15504;SDS011;7854;52.184;5.942;2023-05-20T00:08:52;8;;;5;;
15504;SDS011;7854;52.184;5.942;2023-05-20T00:11:07;4;;;4;;
15504;SDS011;7854;52.184;5.942;2023-05-20T00:13:21;5;;;3;;
15504;SDS011;7854;52.184;5.942;2023-05-20T00:15:36;10;;;4;;
15504;SDS011;7854;52.184;5.942;2023-05-20T00:17:50;6;;;5;;
15504;SDS011;7854;52.184;5.942;2023-05-20T00:20:05;10;;;5;;
15504;SDS011;7854;52.184;5.942;2023-05-20T00:22:19;11;;;4;;
15504;SDS011;7854;52.184;5.942;2023-05-20T00:24:33;8;;;4;;
15504;SDS011;7854;52.184;5.942;2023-05-20T00:26:48;7;;;4;;
15504;SDS011;7854;52.184;5.942;2023-05-20T00:29:02;4;;;4;;
15504;SDS011;7854;52.184;5.942;2023-05-20T00:31:17;4;;;4;;
15504;SDS011;7854;52.184;5.942;2023-05-20T00:33:31;5;;;4;;
15504;SDS011;7854;52.184;5.942;2023-05-20T00:35:45;6;;;3;;
15504;SDS011;7854;52.184;5.942;2023-05-20T00:38:00;4;;;4;;
15504;SDS011;7854;52.184;5.942;2023-05-20T00:40:15;4;;;4;;
15504;SDS011;7854;52.184;5.942;2023-05-20T00:42:28;5;;;4;;
15504;SDS011;7854;52.184;5.942;2023-05-20T00:44:42;7;;;4;;
15504;SDS011;7854;52.184;5.942;2023-05-20T00:46:55;4;;;4;;
15504;SDS011;7854;52.184;5.942;2023-05-20T00:49:09;11;;;3;;
15504;SDS011;7854;52.184;5.942;2023-05-20T00:51:24;8;;;4;;
15504;SDS011;7854;52.184;5.942;2023-05-20T00:53:38;5;;;5;;
15504;SDS011;7854;52.184;5.942;2023-05-20T00:55:52;7;;;3;;
15504;SDS011;7854;52.184;5.942;2023-05-20T00:58:07;6;;;4;;
15504;SDS011;7854;52.184;5.942;2023-05-20T01:02:36;5;;;4;;
15504;SDS011;7854;52.184;5.942;2023-05-20T01:04:50;10;;;4;;
15504;SDS011;7854;52.184;5.942;2023-05-20T01:07:05;6;;;5;;
15504;SDS011;7854;52.184;5.942;2023-05-20T01:09:19;4;;;4;;
15504;SDS011;7854;52.184;5.942;2023-05-20T01:11:34;7;;;5;;
15504;SDS011;7854;52.184;5.942;2023-05-20T01:13:49;6;;;4;;
15504;SDS011;7854;52.184;5.942;2023-05-20T01:16:03;6;;;4;;
15504;SDS011;7854;52.184;5.942;2023-05-20T01:18:17;6;;;4;;
15504;SDS011;7854;52.184;5.942;2023-05-20T01:20:32;5;;;4;;
15504;SDS011;7854;52.184;5.942;2023-05-20T01:22:46;5;;;4;;
15504;SDS011;7854;52.184;5.942;2023-05-20T01:25:00;7;;;4;;
15504;SDS011;7854;52.184;5.942;2023-05-20T01:27:15;7;;;4;;
15504;SDS011;7854;52.184;5.942;2023-05-20T01:29:29;4;;;4;;
15504;SDS011;7854;52.184;5.942;2023-05-20T01:31:44;7;;;4;;
15504;SDS011;7854;52.184;5.942;2023-05-20T01:33:57;16;;;4;;
15504;SDS011;7854;52.184;5.942;2023-05-20T01:36:12;7;;;4;;
15504;SDS011;7854;52.184;5.942;2023-05-20T01:38:26;8;;;4;;
15504;SDS011;7854;52.184;5.942;2023-05-20T01:40:41;10;;;5;;
15504;SDS011;7854;52.184;5.942;2023-05-20T01:42:55;6;;;5;;
15504;SDS011;7854;52.184;5.942;2023-05-20T01:45:09;7;;;5;;
15504;SDS011;7854;52.184;5.942;2023-05-20T01:47:24;5;;;4;;
15504;SDS011;7854;52.184;5.942;2023-05-20T01:49:38;5;;;4;;
15504;SDS011;7854;52.184;5.942;2023-05-20T01:51:53;9;;;5;;
15504;SDS011;7854;52.184;5.942;2023-05-20T01:54:07;5;;;5;;
15504;SDS011;7854;52.184;5.942;2023-05-20T01:56:22;7;;;4;;
15504;SDS011;7854;52.184;5.942;2023-05-20T01:58:36;5;;;4;;
15504;SDS011;7854;52.184;5.942;2023-05-20T02:00:51;12;;;5;;
15504;SDS011;7854;52.184;5.942;2023-05-20T02:03:05;7;;;5;;
15504;SDS011;7854;52.184;5.942;2023-05-20T02:05:19;6;;;6;;
15504;SDS011;7854;52.184;5.942;2023-05-20T02:07:34;8;;;5;;
15504;SDS011;7854;52.184;5.942;2023-05-20T02:09:48;6;;;5;;
15504;SDS011;7854;52.184;5.942;2023-05-20T02:12:03;4;;;3;;
15504;SDS011;7854;52.184;5.942;2023-05-20T02:14:17;5;;;4;;
15504;SDS011;7854;52.184;5.942;2023-05-20T02:16:31;5;;;4;;
15504;SDS011;7854;52.184;5.942;2023-05-20T02:18:45;4;;;4;;
15504;SDS011;7854;52.184;5.942;2023-05-20T02:21:00;12;;;5;;
15504;SDS011;7854;52.184;5.942;2023-05-20T02:23:14;7;;;4;;
15504;SDS011;7854;52.184;5.942;2023-05-20T02:25:28;5;;;4;;
15504;SDS011;7854;52.184;5.942;2023-05-20T02:27:43;6;;;5;;
15504;SDS011;7854;52.184;5.942;2023-05-20T02:29:58;10;;;4;;
15504;SDS011;7854;52.184;5.942;2023-05-20T02:32:12;17;;;5;;
15504;SDS011;7854;52.184;5.942;2023-05-20T02:34:27;4;;;4;;
15504;SDS011;7854;52.184;5.942;2023-05-20T02:36:41;6;;;5;;
15504;SDS011;7854;52.184;5.942;2023-05-20T02:38:55;7;;;5;;
15504;SDS011;7854;52.184;5.942;2023-05-20T02:41:09;15;;;5;;
15504;SDS011;7854;52.184;5.942;2023-05-20T02:43:24;19;;;5;;
15504;SDS011;7854;52.184;5.942;2023-05-20T02:45:39;7;;;5;;
15504;SDS011;7854;52.184;5.942;2023-05-20T02:47:53;5;;;4;;
15504;SDS011;7854;52.184;5.942;2023-05-20T02:52:22;9;;;6;;
15504;SDS011;7854;52.184;5.942;2023-05-20T02:54:36;5;;;5;;
15504;SDS011;7854;52.184;5.942;2023-05-20T02:56:50;9;;;5;;
15504;SDS011;7854;52.184;5.942;2023-05-20T02:59:05;6;;;5;;
15504;SDS011;7854;52.184;5.942;2023-05-20T03:01:20;6;;;6;;
15504;SDS011;7854;52.184;5.942;2023-05-20T03:03:34;11;;;6;;
15504;SDS011;7854;52.184;5.942;2023-05-20T03:05:48;7;;;6;;
15504;SDS011;7854;52.184;5.942;2023-05-20T03:08:01;10;;;5;;
15504;SDS011;7854;52.184;5.942;2023-05-20T03:10:16;6;;;5;;
15504;SDS011;7854;52.184;5.942;2023-05-20T03:12:30;8;;;6;;
15504;SDS011;7854;52.184;5.942;2023-05-20T03:14:45;6;;;5;;
15504;SDS011;7854;52.184;5.942;2023-05-20T03:16:58;8;;;6;;
15504;SDS011;7854;52.184;5.942;2023-05-20T03:19:13;6;;;6;;
15504;SDS011;7854;52.184;5.942;2023-05-20T03:21:28;6;;;6;;
15504;SDS011;7854;52.184;5.942;2023-05-20T03:23:42;10;;;5;;
15504;SDS011;7854;52.184;5.942;2023-05-20T03:25:56;11;;;5;;
15504;SDS011;7854;52.184;5.942;2023-05-20T03:28:11;10;;;6;;
15504;SDS011;7854;52.184;5.942;2023-05-20T03:30:26;7;;;5;;
15504;SDS011;7854;52.184;5.942;2023-05-20T03:32:41;11;;;6;;
15504;SDS011;7854;52.184;5.942;2023-05-20T03:34:55;19;;;5;;
15504;SDS011;7854;52.184;5.942;2023-05-20T03:37:09;7;;;5;;
15504;SDS011;7854;52.184;5.942;2023-05-20T03:41:37;16;;;7;;
15504;SDS011;7854;52.184;5.942;2023-05-20T03:43:52;9;;;6;;
15504;SDS011;7854;52.184;5.942;2023-05-20T03:46:06;7;;;6;;
15504;SDS011;7854;52.184;5.942;2023-05-20T03:48:21;6;;;5;;
15504;SDS011;7854;52.184;5.942;2023-05-20T03:50:36;7;;;6;;
15504;SDS011;7854;52.184;5.942;2023-05-20T03:52:50;7;;;6;;
15504;SDS011;7854;52.184;5.942;2023-05-20T03:55:04;7;;;6;;
15504;SDS011;7854;52.184;5.942;2023-05-20T03:57:19;7;;;6;;
15504;SDS011;7854;52.184;5.942;2023-05-20T03:59:33;6;;;6;;
15504;SDS011;7854;52.184;5.942;2023-05-20T04:04:02;10;;;6;;
15504;SDS011;7854;52.184;5.942;2023-05-20T04:06:17;8;;;7;;
15504;SDS011;7854;52.184;5.942;2023-05-20T04:08:31;7;;;6;;
15504;SDS011;7854;52.184;5.942;2023-05-20T04:10:45;11;;;6;;
15504;SDS011;7854;52.184;5.942;2023-05-20T04:13:00;14;;;6;;
15504;SDS011;7854;52.184;5.942;2023-05-20T04:15:14;7;;;6;;
15504;SDS011;7854;52.184;5.942;2023-05-20T04:17:29;8;;;7;;
15504;SDS011;7854;52.184;5.942;2023-05-20T04:19:43;8;;;7;;
15504;SDS011;7854;52.184;5.942;2023-05-20T04:21:58;11;;;6;;
15504;SDS011;7854;52.184;5.942;2023-05-20T04:24:12;12;;;6;;
15504;SDS011;7854;52.184;5.942;2023-05-20T04:26:26;7;;;6;;
15504;SDS011;7854;52.184;5.942;2023-05-20T04:28:41;7;;;7;;
15504;SDS011;7854;52.184;5.942;2023-05-20T04:30:57;7;;;6;;
15504;SDS011;7854;52.184;5.942;2023-05-20T04:33:08;9;;;7;;
15504;SDS011;7854;52.184;5.942;2023-05-20T04:35:22;6;;;5;;
15504;SDS011;7854;52.184;5.942;2023-05-20T04:37:37;7;;;6;;
15504;SDS011;7854;52.184;5.942;2023-05-20T04:39:51;6;;;5;;
15504;SDS011;7854;52.184;5.942;2023-05-20T04:42:06;8;;;6;;
15504;SDS011;7854;52.184;5.942;2023-05-20T04:44:20;7;;;6;;
15504;SDS011;7854;52.184;5.942;2023-05-20T04:48:49;6;;;5;;
15504;SDS011;7854;52.184;5.942;2023-05-20T04:51:04;7;;;6;;
15504;SDS011;7854;52.184;5.942;2023-05-20T04:53:18;5;;;5;;
15504;SDS011;7854;52.184;5.942;2023-05-20T04:55:33;7;;;6;;
15504;SDS011;7854;52.184;5.942;2023-05-20T04:57:47;5;;;5;;
15504;SDS011;7854;52.184;5.942;2023-05-20T05:00:03;5;;;5;;
15504;SDS011;7854;52.184;5.942;2023-05-20T05:02:16;4;;;4;;
15504;SDS011;7854;52.184;5.942;2023-05-20T05:04:30;5;;;4;;
15504;SDS011;7854;52.184;5.942;2023-05-20T05:06:46;5;;;5;;
15504;SDS011;7854;52.184;5.942;2023-05-20T05:08:59;6;;;5;;
15504;SDS011;7854;52.184;5.942;2023-05-20T05:11:13;6;;;5;;
15504;SDS011;7854;52.184;5.942;2023-05-20T05:13:28;9;;;5;;
15504;SDS011;7854;52.184;5.942;2023-05-20T05:15:43;7;;;4;;
15504;SDS011;7854;52.184;5.942;2023-05-20T05:17:57;5;;;4;;
15504;SDS011;7854;52.184;5.942;2023-05-20T05:20:10;5;;;4;;
15504;SDS011;7854;52.184;5.942;2023-05-20T05:22:25;4;;;4;;
15504;SDS011;7854;52.184;5.942;2023-05-20T05:24:39;10;;;4;;
15504;SDS011;7854;52.184;5.942;2023-05-20T05:26:54;3;;;3;;
15504;SDS011;7854;52.184;5.942;2023-05-20T05:29:08;3;;;3;;
15504;SDS011;7854;52.184;5.942;2023-05-20T05:31:23;3;;;3;;
15504;SDS011;7854;52.184;5.942;2023-05-20T05:33:37;5;;;3;;
15504;SDS011;7854;52.184;5.942;2023-05-20T05:35:51;5;;;3;;
15504;SDS011;7854;52.184;5.942;2023-05-20T05:38:06;8;;;4;;
15504;SDS011;7854;52.184;5.942;2023-05-20T05:40:20;5;;;3;;
15504;SDS011;7854;52.184;5.942;2023-05-20T05:42:35;5;;;2;;
15504;SDS011;7854;52.184;5.942;2023-05-20T05:44:49;2;;;2;;
15504;SDS011;7854;52.184;5.942;2023-05-20T05:47:04;2;;;2;;
15504;SDS011;7854;52.184;5.942;2023-05-20T05:49:18;2;;;2;;
15504;SDS011;7854;52.184;5.942;2023-05-20T05:51:33;3;;;2;;
15504;SDS011;7854;52.184;5.942;2023-05-20T05:53:47;2;;;2;;
15504;SDS011;7854;52.184;5.942;2023-05-20T05:56:02;7;;;2;;
15504;SDS011;7854;52.184;5.942;2023-05-20T05:58:16;2;;;1;;
15504;SDS011;7854;52.184;5.942;2023-05-20T06:00:30;4;;;2;;
15504;SDS011;7854;52.184;5.942;2023-05-20T06:02:45;2;;;2;;
15504;SDS011;7854;52.184;5.942;2023-05-20T06:04:59;3;;;2;;
15504;SDS011;7854;52.184;5.942;2023-05-20T06:07:12;2;;;2;;
15504;SDS011;7854;52.184;5.942;2023-05-20T06:09:26;2;;;1;;
15504;SDS011;7854;52.184;5.942;2023-05-20T06:11:41;6;;;1;;
15504;SDS011;7854;52.184;5.942;2023-05-20T06:13:55;1;;;1;;
15504;SDS011;7854;52.184;5.942;2023-05-20T06:16:10;2;;;2;;
15504;SDS011;7854;52.184;5.942;2023-05-20T06:18:24;5;;;1;;
15504;SDS011;7854;52.184;5.942;2023-05-20T06:20:38;2;;;1;;
15504;SDS011;7854;52.184;5.942;2023-05-20T06:22:53;3;;;1;;
15504;SDS011;7854;52.184;5.942;2023-05-20T06:25:08;2;;;1;;
15504;SDS011;7854;52.184;5.942;2023-05-20T06:27:22;2;;;1;;
15504;SDS011;7854;52.184;5.942;2023-05-20T06:29:36;5;;;1;;
15504;SDS011;7854;52.184;5.942;2023-05-20T06:31:50;1;;;1;;
15504;SDS011;7854;52.184;5.942;2023-05-20T06:34:05;1;;;1;;
15504;SDS011;7854;52.184;5.942;2023-05-20T06:36:20;1;;;1;;
15504;SDS011;7854;52.184;5.942;2023-05-20T06:38:34;1;;;1;;
15504;SDS011;7854;52.184;5.942;2023-05-20T06:40:49;1;;;1;;
15504;SDS011;7854;52.184;5.942;2023-05-20T06:43:03;1;;;1;;
15504;SDS011;7854;52.184;5.942;2023-05-20T06:45:18;2;;;2;;
15504;SDS011;7854;52.184;5.942;2023-05-20T06:47:32;1;;;1;;
15504;SDS011;7854;52.184;5.942;2023-05-20T06:49:46;2;;;1;;
15504;SDS011;7854;52.184;5.942;2023-05-20T06:52:00;4;;;1;;
15504;SDS011;7854;52.184;5.942;2023-05-20T06:54:14;2;;;1;;
15504;SDS011;7854;52.184;5.942;2023-05-20T06:56:29;1;;;1;;
15504;SDS011;7854;52.184;5.942;2023-05-20T06:58:43;3;;;1;;
15504;SDS011;7854;52.184;5.942;2023-05-20T07:00:58;1;;;1;;
15504;SDS011;7854;52.184;5.942;2023-05-20T07:03:12;5;;;1;;
15504;SDS011;7854;52.184;5.942;2023-05-20T07:05:27;1;;;1;;
15504;SDS011;7854;52.184;5.942;2023-05-20T07:07:41;1;;;1;;
15504;SDS011;7854;52.184;5.942;2023-05-20T07:09:56;5;;;1;;
15504;SDS011;7854;52.184;5.942;2023-05-20T07:12:10;1;;;1;;
15504;SDS011;7854;52.184;5.942;2023-05-20T07:14:24;3;;;1;;
15504;SDS011;7854;52.184;5.942;2023-05-20T07:16:38;3;;;1;;
15504;SDS011;7854;52.184;5.942;2023-05-20T07:18:53;4;;;0;;
15504;SDS011;7854;52.184;5.942;2023-05-20T07:21:08;2;;;1;;
15504;SDS011;7854;52.184;5.942;2023-05-20T07:23:22;1;;;1;;
15504;SDS011;7854;52.184;5.942;2023-05-20T07:25:37;1;;;1;;
15504;SDS011;7854;52.184;5.942;2023-05-20T07:27:51;1;;;1;;
15504;SDS011;7854;52.184;5.942;2023-05-20T07:30:07;2;;;1;;
15504;SDS011;7854;52.184;5.942;2023-05-20T07:32:20;1;;;1;;
15504;SDS011;7854;52.184;5.942;2023-05-20T07:34:34;1;;;1;;
15504;SDS011;7854;52.184;5.942;2023-05-20T07:36:49;2;;;1;;
15504;SDS011;7854;52.184;5.942;2023-05-20T07:41:18;2;;;1;;
15504;SDS011;7854;52.184;5.942;2023-05-20T07:43:32;1;;;1;;
15504;SDS011;7854;52.184;5.942;2023-05-20T07:45:47;2;;;1;;
15504;SDS011;7854;52.184;5.942;2023-05-20T07:48:01;1;;;1;;
15504;SDS011;7854;52.184;5.942;2023-05-20T07:50:15;2;;;1;;
15504;SDS011;7854;52.184;5.942;2023-05-20T07:52:30;1;;;1;;
15504;SDS011;7854;52.184;5.942;2023-05-20T07:59:13;1;;;1;;
15504;SDS011;7854;52.184;5.942;2023-05-20T08:01:27;1;;;1;;
15504;SDS011;7854;52.184;5.942;2023-05-20T08:03:48;3;;;1;;
15504;SDS011;7854;52.184;5.942;2023-05-20T08:06:08;1;;;1;;
15504;SDS011;7854;52.184;5.942;2023-05-20T08:08:28;1;;;1;;
15504;SDS011;7854;52.184;5.942;2023-05-20T08:10:49;3;;;1;;
15504;SDS011;7854;52.184;5.942;2023-05-20T08:13:09;4;;;1;;
15504;SDS011;7854;52.184;5.942;2023-05-20T08:15:23;2;;;1;;
15504;SDS011;7854;52.184;5.942;2023-05-20T08:17:37;2;;;1;;
15504;SDS011;7854;52.184;5.942;2023-05-20T08:19:53;4;;;1;;
15504;SDS011;7854;52.184;5.942;2023-05-20T08:22:06;1;;;1;;
15504;SDS011;7854;52.184;5.942;2023-05-20T08:24:20;1;;;1;;
15504;SDS011;7854;52.184;5.942;2023-05-20T08:26:35;1;;;1;;
15504;SDS011;7854;52.184;5.942;2023-05-20T08:28:50;1;;;1;;
15504;SDS011;7854;52.184;5.942;2023-05-20T08:31:04;3;;;1;;
15504;SDS011;7854;52.184;5.942;2023-05-20T08:33:19;2;;;1;;
15504;SDS011;7854;52.184;5.942;2023-05-20T08:35:33;1;;;1;;
15504;SDS011;7854;52.184;5.942;2023-05-20T08:37:47;4;;;2;;
15504;SDS011;7854;52.184;5.942;2023-05-20T08:40:02;1;;;1;;
15504;SDS011;7854;52.184;5.942;2023-05-20T08:42:18;2;;;1;;
15504;SDS011;7854;52.184;5.942;2023-05-20T08:44:31;2;;;1;;
15504;SDS011;7854;52.184;5.942;2023-05-20T08:46:45;1;;;1;;
15504;SDS011;7854;52.184;5.942;2023-05-20T08:51:15;7;;;1;;
15504;SDS011;7854;52.184;5.942;2023-05-20T08:53:28;1;;;1;;
15504;SDS011;7854;52.184;5.942;2023-05-20T08:55:45;4;;;2;;
15504;SDS011;7854;52.184;5.942;2023-05-20T09:00:12;3;;;1;;
15504;SDS011;7854;52.184;5.942;2023-05-20T09:02:26;1;;;1;;
15504;SDS011;7854;52.184;5.942;2023-05-20T09:04:40;10;;;1;;
15504;SDS011;7854;52.184;5.942;2023-05-20T09:06:55;1;;;1;;
15504;SDS011;7854;52.184;5.942;2023-05-20T09:09:10;1;;;1;;
15504;SDS011;7854;52.184;5.942;2023-05-20T09:11:24;1;;;1;;
15504;SDS011;7854;52.184;5.942;2023-05-20T09:13:39;1;;;1;;
15504;SDS011;7854;52.184;5.942;2023-05-20T09:15:53;1;;;1;;
15504;SDS011;7854;52.184;5.942;2023-05-20T09:18:08;1;;;1;;
15504;SDS011;7854;52.184;5.942;2023-05-20T09:20:22;1;;;1;;
15504;SDS011;7854;52.184;5.942;2023-05-20T09:22:37;1;;;1;;
15504;SDS011;7854;52.184;5.942;2023-05-20T09:24:51;1;;;1;;
15504;SDS011;7854;52.184;5.942;2023-05-20T09:27:05;1;;;0;;
15504;SDS011;7854;52.184;5.942;2023-05-20T09:29:19;1;;;1;;
15504;SDS011;7854;52.184;5.942;2023-05-20T09:31:34;1;;;1;;
15504;SDS011;7854;52.184;5.942;2023-05-20T09:33:49;1;;;0;;
15504;SDS011;7854;52.184;5.942;2023-05-20T09:36:03;2;;;1;;
15504;SDS011;7854;52.184;5.942;2023-05-20T09:38:18;2;;;1;;
15504;SDS011;7854;52.184;5.942;2023-05-20T09:40:32;0;;;0;;
15504;SDS011;7854;52.184;5.942;2023-05-20T09:42:47;1;;;1;;
15504;SDS011;7854;52.184;5.942;2023-05-20T09:45:01;1;;;0;;
15504;SDS011;7854;52.184;5.942;2023-05-20T09:47:15;1;;;1;;
15504;SDS011;7854;52.184;5.942;2023-05-20T09:49:29;1;;;1;;
15504;SDS011;7854;52.184;5.942;2023-05-20T09:51:44;1;;;0;;
15504;SDS011;7854;52.184;5.942;2023-05-20T09:53:58;1;;;1;;
15504;SDS011;7854;52.184;5.942;2023-05-20T09:56:13;4;;;1;;
15504;SDS011;7854;52.184;5.942;2023-05-20T09:58:28;1;;;1;;
15504;SDS011;7854;52.184;5.942;2023-05-20T10:00:42;1;;;0;;
15504;SDS011;7854;52.184;5.942;2023-05-20T10:02:56;1;;;1;;
15504;SDS011;7854;52.184;5.942;2023-05-20T10:05:13;1;;;1;;
15504;SDS011;7854;52.184;5.942;2023-05-20T10:07:30;1;;;1;;
15504;SDS011;7854;52.184;5.942;2023-05-20T10:09:44;2;;;1;;
15504;SDS011;7854;52.184;5.942;2023-05-20T10:11:55;1;;;1;;
15504;SDS011;7854;52.184;5.942;2023-05-20T10:14:14;1;;;1;;
15504;SDS011;7854;52.184;5.942;2023-05-20T10:16:25;1;;;1;;
15504;SDS011;7854;52.184;5.942;2023-05-20T10:18:40;1;;;1;;
15504;SDS011;7854;52.184;5.942;2023-05-20T10:20:52;5;;;1;;
15504;SDS011;7854;52.184;5.942;2023-05-20T10:23:06;3;;;1;;
15504;SDS011;7854;52.184;5.942;2023-05-20T10:25:22;0;;;0;;
15504;SDS011;7854;52.184;5.942;2023-05-20T10:27:43;1;;;1;;
15504;SDS011;7854;52.184;5.942;2023-05-20T10:29:50;0;;;0;;
15504;SDS011;7854;52.184;5.942;2023-05-20T10:32:04;0;;;0;;
15504;SDS011;7854;52.184;5.942;2023-05-20T10:34:19;1;;;1;;
15504;SDS011;7854;52.184;5.942;2023-05-20T10:36:33;2;;;1;;
15504;SDS011;7854;52.184;5.942;2023-05-20T10:38:48;1;;;1;;
15504;SDS011;7854;52.184;5.942;2023-05-20T10:41:06;1;;;1;;
15504;SDS011;7854;52.184;5.942;2023-05-20T10:43:16;1;;;1;;
15504;SDS011;7854;52.184;5.942;2023-05-20T10:45:30;1;;;0;;
15504;SDS011;7854;52.184;5.942;2023-05-20T10:47:52;1;;;1;;
15504;SDS011;7854;52.184;5.942;2023-05-20T10:49:59;1;;;0;;
15504;SDS011;7854;52.184;5.942;2023-05-20T10:52:13;4;;;1;;
15504;SDS011;7854;52.184;5.942;2023-05-20T10:54:28;1;;;1;;
15504;SDS011;7854;52.184;5.942;2023-05-20T10:56:49;0;;;0;;
15504;SDS011;7854;52.184;5.942;2023-05-20T10:58:57;2;;;0;;
15504;SDS011;7854;52.184;5.942;2023-05-20T11:01:11;1;;;0;;
15504;SDS011;7854;52.184;5.942;2023-05-20T11:03:25;1;;;0;;
15504;SDS011;7854;52.184;5.942;2023-05-20T11:05:39;1;;;1;;
15504;SDS011;7854;52.184;5.942;2023-05-20T11:07:59;1;;;1;;
15504;SDS011;7854;52.184;5.942;2023-05-20T11:10:09;1;;;1;;
15504;SDS011;7854;52.184;5.942;2023-05-20T11:12:24;1;;;1;;
15504;SDS011;7854;52.184;5.942;2023-05-20T11:14:38;0;;;0;;
15504;SDS011;7854;52.184;5.942;2023-05-20T11:16:52;1;;;1;;
15504;SDS011;7854;52.184;5.942;2023-05-20T11:19:07;1;;;0;;
15504;SDS011;7854;52.184;5.942;2023-05-20T11:21:21;0;;;0;;
15504;SDS011;7854;52.184;5.942;2023-05-20T11:23:35;5;;;1;;
15504;SDS011;7854;52.184;5.942;2023-05-20T11:25:50;2;;;1;;
15504;SDS011;7854;52.184;5.942;2023-05-20T11:28:07;1;;;1;;
15504;SDS011;7854;52.184;5.942;2023-05-20T11:30:19;2;;;1;;
15504;SDS011;7854;52.184;5.942;2023-05-20T11:32:33;0;;;0;;
15504;SDS011;7854;52.184;5.942;2023-05-20T11:34:49;5;;;1;;
15504;SDS011;7854;52.184;5.942;2023-05-20T11:37:05;3;;;0;;
15504;SDS011;7854;52.184;5.942;2023-05-20T11:39:17;0;;;0;;
15504;SDS011;7854;52.184;5.942;2023-05-20T11:41:31;1;;;1;;
15504;SDS011;7854;52.184;5.942;2023-05-20T11:43:45;1;;;1;;
15504;SDS011;7854;52.184;5.942;2023-05-20T11:46:00;3;;;0;;
15504;SDS011;7854;52.184;5.942;2023-05-20T11:48:14;0;;;0;;
15504;SDS011;7854;52.184;5.942;2023-05-20T11:50:32;1;;;0;;
15504;SDS011;7854;52.184;5.942;2023-05-20T11:52:43;1;;;0;;
15504;SDS011;7854;52.184;5.942;2023-05-20T11:54:58;1;;;1;;
15504;SDS011;7854;52.184;5.942;2023-05-20T11:57:12;0;;;0;;
15504;SDS011;7854;52.184;5.942;2023-05-20T11:59:27;1;;;1;;
15504;SDS011;7854;52.184;5.942;2023-05-20T12:01:41;8;;;0;;
15504;SDS011;7854;52.184;5.942;2023-05-20T12:03:55;5;;;1;;
15504;SDS011;7854;52.184;5.942;2023-05-20T12:08:24;2;;;1;;
15504;SDS011;7854;52.184;5.942;2023-05-20T12:10:39;1;;;1;;
15504;SDS011;7854;52.184;5.942;2023-05-20T12:12:53;2;;;1;;
15504;SDS011;7854;52.184;5.942;2023-05-20T12:15:08;2;;;1;;
15504;SDS011;7854;52.184;5.942;2023-05-20T12:17:22;1;;;1;;
15504;SDS011;7854;52.184;5.942;2023-05-20T12:19:36;1;;;1;;
15504;SDS011;7854;52.184;5.942;2023-05-20T12:21:51;0;;;0;;
15504;SDS011;7854;52.184;5.942;2023-05-20T12:24:05;2;;;0;;
15504;SDS011;7854;52.184;5.942;2023-05-20T12:26:20;8;;;1;;
15504;SDS011;7854;52.184;5.942;2023-05-20T12:28:34;2;;;0;;
15504;SDS011;7854;52.184;5.942;2023-05-20T12:30:48;9;;;1;;
15504;SDS011;7854;52.184;5.942;2023-05-20T12:33:03;4;;;0;;
15504;SDS011;7854;52.184;5.942;2023-05-20T12:37:32;1;;;1;;
15504;SDS011;7854;52.184;5.942;2023-05-20T12:39:46;0;;;0;;
15504;SDS011;7854;52.184;5.942;2023-05-20T12:41:59;1;;;1;;
15504;SDS011;7854;52.184;5.942;2023-05-20T12:44:13;0;;;0;;
15504;SDS011;7854;52.184;5.942;2023-05-20T12:46:28;1;;;1;;
15504;SDS011;7854;52.184;5.942;2023-05-20T12:48:42;0;;;0;;
15504;SDS011;7854;52.184;5.942;2023-05-20T12:50:57;8;;;0;;
15504;SDS011;7854;52.184;5.942;2023-05-20T12:53:11;8;;;0;;
15504;SDS011;7854;52.184;5.942;2023-05-20T12:55:25;3;;;1;;
15504;SDS011;7854;52.184;5.942;2023-05-20T12:57:40;1;;;1;;
15504;SDS011;7854;52.184;5.942;2023-05-20T12:59:56;1;;;0;;
15504;SDS011;7854;52.184;5.942;2023-05-20T13:02:09;2;;;0;;
15504;SDS011;7854;52.184;5.942;2023-05-20T13:04:23;1;;;0;;
15504;SDS011;7854;52.184;5.942;2023-05-20T13:06:38;7;;;1;;
15504;SDS011;7854;52.184;5.942;2023-05-20T13:08:52;5;;;0;;
15504;SDS011;7854;52.184;5.942;2023-05-20T13:11:07;0;;;0;;
15504;SDS011;7854;52.184;5.942;2023-05-20T13:13:22;0;;;0;;
15504;SDS011;7854;52.184;5.942;2023-05-20T13:15:36;0;;;0;;
15504;SDS011;7854;52.184;5.942;2023-05-20T13:17:50;0;;;0;;
15504;SDS011;7854;52.184;5.942;2023-05-20T13:20:05;0;;;0;;
15504;SDS011;7854;52.184;5.942;2023-05-20T13:22:19;1;;;0;;
15504;SDS011;7854;52.184;5.942;2023-05-20T13:24:34;1;;;0;;
15504;SDS011;7854;52.184;5.942;2023-05-20T13:26:48;1;;;0;;
15504;SDS011;7854;52.184;5.942;2023-05-20T13:29:02;4;;;0;;
15504;SDS011;7854;52.184;5.942;2023-05-20T13:31:17;1;;;0;;
15504;SDS011;7854;52.184;5.942;2023-05-20T13:33:31;2;;;0;;
15504;SDS011;7854;52.184;5.942;2023-05-20T13:35:45;4;;;1;;
15504;SDS011;7854;52.184;5.942;2023-05-20T13:38:00;1;;;0;;
15504;SDS011;7854;52.184;5.942;2023-05-20T13:40:14;1;;;0;;
15504;SDS011;7854;52.184;5.942;2023-05-20T13:42:29;1;;;0;;
15504;SDS011;7854;52.184;5.942;2023-05-20T13:44:43;0;;;0;;
15504;SDS011;7854;52.184;5.942;2023-05-20T13:46:58;1;;;0;;
15504;SDS011;7854;52.184;5.942;2023-05-20T13:49:13;1;;;0;;
15504;SDS011;7854;52.184;5.942;2023-05-20T13:51:26;0;;;0;;
15504;SDS011;7854;52.184;5.942;2023-05-20T13:53:41;5;;;0;;
15504;SDS011;7854;52.184;5.942;2023-05-20T13:55:55;1;;;0;;
15504;SDS011;7854;52.184;5.942;2023-05-20T13:58:10;0;;;0;;
15504;SDS011;7854;52.184;5.942;2023-05-20T14:00:24;1;;;0;;
15504;SDS011;7854;52.184;5.942;2023-05-20T14:02:39;1;;;0;;
15504;SDS011;7854;52.184;5.942;2023-05-20T14:04:54;1;;;1;;
15504;SDS011;7854;52.184;5.942;2023-05-20T14:07:08;0;;;0;;
15504;SDS011;7854;52.184;5.942;2023-05-20T14:09:23;0;;;0;;
15504;SDS011;7854;52.184;5.942;2023-05-20T14:11:37;1;;;1;;
15504;SDS011;7854;52.184;5.942;2023-05-20T14:13:51;1;;;1;;
15504;SDS011;7854;52.184;5.942;2023-05-20T14:16:06;3;;;0;;
15504;SDS011;7854;52.184;5.942;2023-05-20T14:18:20;0;;;0;;
15504;SDS011;7854;52.184;5.942;2023-05-20T14:20:35;1;;;0;;
15504;SDS011;7854;52.184;5.942;2023-05-20T14:22:49;0;;;0;;
15504;SDS011;7854;52.184;5.942;2023-05-20T14:25:04;1;;;0;;
15504;SDS011;7854;52.184;5.942;2023-05-20T14:27:18;7;;;0;;
15504;SDS011;7854;52.184;5.942;2023-05-20T14:29:32;1;;;1;;
15504;SDS011;7854;52.184;5.942;2023-05-20T14:31:47;7;;;1;;
15504;SDS011;7854;52.184;5.942;2023-05-20T14:34:01;1;;;1;;
15504;SDS011;7854;52.184;5.942;2023-05-20T14:36:15;1;;;1;;
15504;SDS011;7854;52.184;5.942;2023-05-20T14:38:30;4;;;1;;
15504;SDS011;7854;52.184;5.942;2023-05-20T14:40:45;0;;;0;;
15504;SDS011;7854;52.184;5.942;2023-05-20T14:42:59;3;;;0;;
15504;SDS011;7854;52.184;5.942;2023-05-20T14:45:14;3;;;1;;
15504;SDS011;7854;52.184;5.942;2023-05-20T14:47:28;2;;;0;;
15504;SDS011;7854;52.184;5.942;2023-05-20T14:49:42;1;;;1;;
15504;SDS011;7854;52.184;5.942;2023-05-20T14:51:57;0;;;0;;
15504;SDS011;7854;52.184;5.942;2023-05-20T14:54:11;2;;;1;;
15504;SDS011;7854;52.184;5.942;2023-05-20T14:56:26;0;;;0;;
15504;SDS011;7854;52.184;5.942;2023-05-20T14:58:40;0;;;0;;
15504;SDS011;7854;52.184;5.942;2023-05-20T15:00:54;4;;;0;;
15504;SDS011;7854;52.184;5.942;2023-05-20T15:07:37;3;;;2;;
15504;SDS011;7854;52.184;5.942;2023-05-20T15:09:51;0;;;0;;
15504;SDS011;7854;52.184;5.942;2023-05-20T15:12:05;2;;;0;;
15504;SDS011;7854;52.184;5.942;2023-05-20T15:14:19;1;;;1;;
15504;SDS011;7854;52.184;5.942;2023-05-20T15:16:34;2;;;1;;
15504;SDS011;7854;52.184;5.942;2023-05-20T15:18:48;9;;;1;;
15504;SDS011;7854;52.184;5.942;2023-05-20T15:21:03;2;;;1;;
15504;SDS011;7854;52.184;5.942;2023-05-20T15:25:32;1;;;0;;
15504;SDS011;7854;52.184;5.942;2023-05-20T15:27:46;2;;;1;;
15504;SDS011;7854;52.184;5.942;2023-05-20T15:30:01;1;;;1;;
15504;SDS011;7854;52.184;5.942;2023-05-20T15:32:15;2;;;2;;
15504;SDS011;7854;52.184;5.942;2023-05-20T15:34:29;1;;;1;;
15504;SDS011;7854;52.184;5.942;2023-05-20T15:36:44;0;;;0;;
15504;SDS011;7854;52.184;5.942;2023-05-20T15:38:58;6;;;0;;